Time;durP1;ratioP1;P1;durP2;ratioP2;P2;SDS_P1;SDS_P2;PMS_P1;PMS_P2;Temp;Humidity;BMP_temperature;BMP_pressure;BME280_temperature;BME280_humidity;BME280_pressure;Samples;Min_cycle;Max_cycle;Signal;HPM_P1;HPM_P2
2022/04/05 00:01:51;;;;;;;14.65;2.45;;;8.00;99.90;;;;;;5006304;28;20509;-67
2022/04/05 00:04:17;;;;;;;12.95;2.50;;;8.00;99.90;;;;;;5010386;28;20103;-67
2022/04/05 00:06:42;;;;;;;9.80;2.42;;;8.00;99.90;;;;;;5009056;28;20042;-67
2022/04/05 00:09:08;;;;;;;9.55;2.50;;;8.00;99.90;;;;;;5008553;28;20347;-67
2022/04/05 00:11:33;;;;;;;11.00;2.45;;;8.00;99.90;;;;;;5007570;28;20037;-67
2022/04/05 00:14:00;;;;;;;8.35;2.22;;;8.00;99.90;;;;;;5007762;28;20048;-67
2022/04/05 00:16:26;;;;;;;12.88;2.30;;;8.10;99.90;;;;;;5008956;28;20038;-67
2022/04/05 00:18:51;;;;;;;8.60;1.92;;;8.00;99.90;;;;;;5008074;28;20050;-67
2022/04/05 00:21:17;;;;;;;10.20;2.28;;;8.00;99.90;;;;;;5010192;28;20050;-67
2022/04/05 00:23:42;;;;;;;11.23;2.50;;;7.90;99.90;;;;;;5008170;28;20050;-67
2022/04/05 00:26:08;;;;;;;12.30;2.20;;;7.90;99.90;;;;;;4973072;28;20070;-67
2022/04/05 00:28:34;;;;;;;9.43;2.53;;;7.90;99.90;;;;;;5006827;28;20545;-68
2022/04/05 00:30:59;;;;;;;12.02;2.70;;;7.80;99.90;;;;;;5007810;28;20056;-67
2022/04/05 00:33:25;;;;;;;11.38;2.90;;;7.90;99.90;;;;;;5008609;28;20092;-67
2022/04/05 00:35:51;;;;;;;13.77;2.92;;;8.00;99.90;;;;;;5008220;28;20069;-67
2022/04/05 00:38:17;;;;;;;13.50;2.80;;;8.00;99.90;;;;;;5007734;28;20402;-67
2022/04/05 00:40:42;;;;;;;13.38;2.90;;;8.00;99.90;;;;;;5006857;28;20037;-67
2022/04/05 00:43:08;;;;;;;10.02;2.75;;;8.00;99.90;;;;;;5005686;28;20034;-67
2022/04/05 00:45:34;;;;;;;13.10;2.58;;;7.90;99.90;;;;;;5006548;28;20045;-68
2022/04/05 00:48:00;;;;;;;9.77;2.40;;;8.00;99.90;;;;;;5008249;28;20501;-68
2022/04/05 00:50:27;;;;;;;12.23;2.88;;;7.90;99.90;;;;;;4991026;28;20130;-68
2022/04/05 00:52:53;;;;;;;13.45;2.58;;;7.60;99.90;;;;;;4989103;28;20046;-68
2022/04/05 00:55:22;;;;;;;10.98;2.50;;;7.80;99.90;;;;;;5007246;28;20053;-68
2022/04/05 00:57:50;;;;;;;13.98;2.72;;;7.80;99.90;;;;;;5009544;28;20398;-68
2022/04/05 01:00:16;;;;;;;13.90;2.38;;;7.80;99.90;;;;;;5013760;28;20121;-68
2022/04/05 01:02:46;;;;;;;12.00;2.45;;;7.90;99.90;;;;;;5014425;28;20493;-68
2022/04/05 01:05:15;;;;;;;13.02;2.67;;;8.00;99.90;;;;;;5012393;28;20073;-67
2022/04/05 01:07:41;;;;;;;16.38;2.80;;;7.80;99.90;;;;;;5011311;28;20053;-68
2022/04/05 01:10:08;;;;;;;12.90;2.75;;;7.80;99.90;;;;;;4993609;28;20068;-68
2022/04/05 01:12:34;;;;;;;12.68;3.08;;;7.80;99.90;;;;;;4994599;28;20358;-68
2022/04/05 01:14:59;;;;;;;9.80;2.50;;;7.80;99.90;;;;;;4993939;28;20056;-67
2022/04/05 01:17:26;;;;;;;14.02;2.58;;;7.70;99.90;;;;;;4994318;28;20046;-68
2022/04/05 01:19:52;;;;;;;23.10;4.35;;;7.60;99.90;;;;;;5013995;28;20084;-68
2022/04/05 01:22:18;;;;;;;14.77;3.10;;;7.70;99.90;;;;;;5010498;28;20449;-67
2022/04/05 01:24:43;;;;;;;16.58;3.20;;;7.70;99.90;;;;;;5011396;28;20050;-68
2022/04/05 01:27:16;;;;;;;11.77;3.03;;;7.70;99.90;;;;;;5010004;28;20457;-67
2022/04/05 01:29:42;;;;;;;15.40;2.92;;;7.70;99.90;;;;;;5010434;28;20453;-68
2022/04/05 01:32:08;;;;;;;13.48;3.25;;;7.80;99.90;;;;;;5006653;28;20508;-67
2022/04/05 01:34:36;;;;;;;16.05;2.88;;;7.70;99.90;;;;;;5010442;28;20092;-68
2022/04/05 01:37:04;;;;;;;15.93;3.00;;;7.70;99.90;;;;;;5011321;28;20037;-68
2022/04/05 01:39:32;;;;;;;13.23;2.60;;;7.70;99.90;;;;;;5011508;28;20436;-67
2022/04/05 01:42:04;;;;;;;16.55;2.50;;;7.70;99.90;;;;;;5009690;28;20088;-67
2022/04/05 01:44:31;;;;;;;14.50;2.63;;;7.60;99.90;;;;;;4992448;28;20502;-68
2022/04/05 01:47:02;;;;;;;12.43;2.55;;;7.50;99.90;;;;;;4994101;28;20170;-68
2022/04/05 01:49:27;;;;;;;12.55;2.90;;;7.60;99.90;;;;;;5012835;28;20046;-68
2022/04/05 01:51:53;;;;;;;12.93;2.45;;;7.50;99.90;;;;;;5011264;28;20104;-68
2022/04/05 01:54:18;;;;;;;10.95;2.67;;;7.50;99.90;;;;;;5012343;28;20405;-68
2022/04/05 01:56:49;;;;;;;13.05;2.33;;;7.40;99.90;;;;;;5012316;28;20046;-67
2022/04/05 01:59:21;;;;;;;9.80;2.45;;;7.40;99.90;;;;;;4994423;28;20117;-67
2022/04/05 02:01:47;;;;;;;16.63;2.35;;;8.60;99.90;;;;;;4992558;28;20505;-67
2022/04/05 02:04:13;;;;;;;15.45;2.80;;;7.50;99.90;;;;;;5012739;28;20442;-67
2022/04/05 02:06:39;;;;;;;19.05;3.00;;;7.50;99.90;;;;;;5011018;28;20042;-67
2022/04/05 02:09:06;;;;;;;16.05;2.50;;;7.40;99.90;;;;;;5010306;28;20497;-67
2022/04/05 02:11:32;;;;;;;15.63;3.47;;;7.40;99.90;;;;;;5009212;28;20413;-68
2022/04/05 02:13:57;;;;;;;17.63;2.47;;;7.40;99.90;;;;;;5009278;28;20412;-67
2022/04/05 02:16:23;;;;;;;17.52;2.60;;;7.40;99.90;;;;;;5008593;28;20038;-67
2022/04/05 02:18:48;;;;;;;15.23;2.97;;;7.50;99.90;;;;;;5010494;28;20050;-67
2022/04/05 02:21:14;;;;;;;10.20;2.70;;;7.40;99.90;;;;;;5010435;28;20042;-67
2022/04/05 02:23:40;;;;;;;12.65;3.08;;;8.00;99.90;;;;;;5009532;28;20092;-67
2022/04/05 02:26:05;;;;;;;20.33;2.97;;;7.40;99.90;;;;;;5010371;28;20056;-68
2022/04/05 02:28:31;;;;;;;13.70;2.70;;;7.40;99.90;;;;;;5009729;28;20084;-67
2022/04/05 02:30:56;;;;;;;15.52;2.72;;;7.30;99.90;;;;;;5009430;28;20255;-68
2022/04/05 02:33:22;;;;;;;14.18;2.58;;;7.40;99.90;;;;;;5010612;28;20056;-68
2022/04/05 02:35:48;;;;;;;15.93;2.20;;;7.40;99.90;;;;;;4993046;28;20572;-68
2022/04/05 02:38:14;;;;;;;15.20;2.80;;;7.30;99.90;;;;;;4992076;28;20046;-68
2022/04/05 02:40:40;;;;;;;14.95;2.63;;;7.30;99.90;;;;;;5010534;28;20077;-68
2022/04/05 02:43:06;;;;;;;16.83;3.17;;;7.30;99.90;;;;;;4992882;28;20083;-68
2022/04/05 02:45:32;;;;;;;21.55;3.70;;;7.30;99.90;;;;;;5009478;28;20044;-68
2022/04/05 02:47:57;;;;;;;23.25;3.92;;;7.30;99.90;;;;;;5010240;28;20124;-68
2022/04/05 02:50:23;;;;;;;17.50;2.83;;;7.40;99.90;;;;;;5010033;28;20589;-68
2022/04/05 02:52:49;;;;;;;20.98;3.30;;;7.30;99.90;;;;;;4993711;28;20635;-68
2022/04/05 02:55:18;;;;;;;22.52;3.08;;;7.30;99.90;;;;;;5012888;28;20124;-68
2022/04/05 02:57:46;;;;;;;18.67;3.13;;;7.30;99.90;;;;;;5010850;28;20042;-67
2022/04/05 03:00:15;;;;;;;22.88;4.05;;;7.30;99.90;;;;;;4974561;28;20053;-68
2022/04/05 03:02:41;;;;;;;18.63;3.20;;;7.30;99.90;;;;;;4994612;28;20107;-68
2022/04/05 03:05:07;;;;;;;22.23;3.65;;;7.30;99.90;;;;;;5009988;28;20406;-68
2022/04/05 03:07:34;;;;;;;18.08;3.00;;;7.30;99.90;;;;;;4991926;28;20053;-67
2022/04/05 03:10:04;;;;;;;19.67;3.08;;;7.30;99.90;;;;;;5010312;28;20054;-67
2022/04/05 03:12:30;;;;;;;13.63;2.97;;;7.30;99.90;;;;;;4991278;28;20049;-67
2022/04/05 03:14:56;;;;;;;16.05;2.90;;;7.30;99.90;;;;;;5007641;28;20114;-67
2022/04/05 03:17:22;;;;;;;15.13;3.03;;;7.30;99.90;;;;;;5009512;28;20041;-67
2022/04/05 03:19:48;;;;;;;18.10;3.22;;;7.20;99.90;;;;;;5008807;28;20166;-68
2022/04/05 03:22:16;;;;;;;18.85;2.88;;;7.20;99.90;;;;;;4990473;28;20041;-68
2022/04/05 03:24:42;;;;;;;19.92;3.55;;;7.30;99.90;;;;;;5009777;28;20065;-67
2022/04/05 03:27:08;;;;;;;16.35;3.70;;;7.30;99.90;;;;;;5007517;28;20073;-68
2022/04/05 03:29:34;;;;;;;18.33;2.45;;;7.30;99.90;;;;;;4992039;28;20080;-67
2022/04/05 03:32:00;;;;;;;20.13;2.67;;;7.30;99.90;;;;;;5002771;28;20065;-67
2022/04/05 03:34:26;;;;;;;17.73;3.15;;;7.30;99.90;;;;;;5008396;28;20482;-67
2022/04/05 03:36:51;;;;;;;16.02;3.38;;;7.30;99.90;;;;;;4991177;28;20053;-67
2022/04/05 03:39:17;;;;;;;13.55;2.33;;;7.20;99.90;;;;;;5009559;28;20520;-69
2022/04/05 03:41:44;;;;;;;14.55;2.75;;;7.20;99.90;;;;;;5007832;28;20126;-67
2022/04/05 03:44:10;;;;;;;13.85;3.08;;;7.20;99.90;;;;;;5008328;28;20494;-67
2022/04/05 03:46:36;;;;;;;16.35;3.00;;;7.20;99.90;;;;;;5008381;28;20037;-66
2022/04/05 03:49:03;;;;;;;20.13;2.75;;;7.10;99.90;;;;;;5007347;28;20503;-67
2022/04/05 03:51:28;;;;;;;16.75;3.15;;;7.10;99.90;;;;;;5008861;28;20048;-67
2022/04/05 03:53:54;;;;;;;15.75;2.85;;;7.10;99.90;;;;;;5008790;28;20042;-67
2022/04/05 03:56:20;;;;;;;16.00;2.55;;;7.10;99.90;;;;;;4982224;28;20052;-67
2022/04/05 03:58:47;;;;;;;15.02;2.65;;;7.10;99.90;;;;;;5007291;28;20049;-68
2022/04/05 04:01:12;;;;;;;14.05;2.80;;;7.20;99.90;;;;;;5009257;28;20061;-67
2022/04/05 04:03:38;;;;;;;16.05;2.80;;;7.20;99.90;;;;;;5007985;28;20065;-67
2022/04/05 04:06:04;;;;;;;16.75;3.58;;;7.20;99.90;;;;;;4992964;28;20189;-67
2022/04/05 04:08:29;;;;;;;16.02;3.00;;;7.20;99.90;;;;;;4991915;28;20050;-67
2022/04/05 04:10:55;;;;;;;20.40;3.33;;;7.20;99.90;;;;;;5008166;28;20331;-67
2022/04/05 04:13:20;;;;;;;21.45;3.60;;;7.20;99.90;;;;;;4991690;28;20509;-68
2022/04/05 04:15:46;;;;;;;16.73;2.90;;;7.20;99.90;;;;;;5008357;28;20121;-68
2022/04/05 04:18:12;;;;;;;14.07;3.10;;;7.20;99.90;;;;;;5007657;28;20482;-68
2022/04/05 04:20:44;;;;;;;16.08;3.25;;;7.20;99.90;;;;;;5008727;28;20061;-68
2022/04/05 04:23:10;;;;;;;17.90;3.65;;;7.20;99.90;;;;;;4989974;28;20589;-69
2022/04/05 04:25:39;;;;;;;13.50;2.50;;;7.20;99.90;;;;;;4974133;28;20049;-68
2022/04/05 04:28:05;;;;;;;21.55;3.28;;;7.20;99.90;;;;;;5007125;28;20129;-68
2022/04/05 04:30:36;;;;;;;19.27;2.67;;;7.20;99.90;;;;;;5001768;28;20490;-68
2022/04/05 04:33:02;;;;;;;15.88;3.20;;;7.20;99.90;;;;;;4990470;28;20046;-68
2022/04/05 04:35:28;;;;;;;24.10;2.80;;;7.20;99.90;;;;;;5001783;28;20092;-67
2022/04/05 04:37:54;;;;;;;22.10;3.42;;;7.20;99.90;;;;;;5007087;28;20068;-68
2022/04/05 04:40:20;;;;;;;17.17;3.05;;;7.10;99.90;;;;;;5009224;28;20060;-67
2022/04/05 04:42:46;;;;;;;17.20;3.38;;;7.10;99.90;;;;;;5008702;28;20096;-67
2022/04/05 04:45:12;;;;;;;14.80;3.45;;;7.00;99.90;;;;;;5006306;28;20050;-67
2022/04/05 04:47:39;;;;;;;18.50;3.40;;;7.10;99.90;;;;;;4990594;28;20438;-67
2022/04/05 04:50:06;;;;;;;23.45;3.47;;;7.10;99.90;;;;;;4989227;28;20053;-66
2022/04/05 04:52:32;;;;;;;19.10;3.10;;;7.10;99.90;;;;;;5006663;28;20115;-67
2022/04/05 04:54:58;;;;;;;17.20;3.90;;;7.10;99.90;;;;;;5007618;28;20037;-68
2022/04/05 04:57:25;;;;;;;21.10;3.50;;;7.10;99.90;;;;;;5007146;28;20075;-68
2022/04/05 04:59:51;;;;;;;19.05;3.10;;;7.10;99.90;;;;;;5006396;28;20046;-68
2022/04/05 05:02:16;;;;;;;22.05;3.75;;;7.10;99.90;;;;;;5009609;28;20126;-68
2022/04/05 05:04:42;;;;;;;13.82;2.90;;;7.10;99.90;;;;;;4992369;28;20141;-68
2022/04/05 05:07:08;;;;;;;20.13;3.70;;;7.10;99.90;;;;;;4992204;28;20053;-67
2022/04/05 05:09:34;;;;;;;19.45;3.35;;;7.20;99.90;;;;;;5010199;28;20490;-68
2022/04/05 05:12:00;;;;;;;22.00;4.28;;;7.20;99.90;;;;;;5007963;28;20046;-68
2022/04/05 05:14:27;;;;;;;16.23;3.15;;;7.10;99.90;;;;;;4988365;28;20042;-68
2022/04/05 05:16:53;;;;;;;13.70;2.70;;;7.70;99.90;;;;;;5006436;28;20064;-67
2022/04/05 05:19:22;;;;;;;18.50;3.30;;;7.10;99.90;;;;;;5007296;28;20069;-68
2022/04/05 05:21:48;;;;;;;15.48;2.80;;;7.10;99.90;;;;;;5007364;28;20038;-69
2022/04/05 05:24:14;;;;;;;15.27;3.00;;;7.20;99.90;;;;;;5007248;28;20442;-67
2022/04/05 05:26:40;;;;;;;17.55;3.05;;;7.50;99.90;;;;;;4988100;28;20129;-67
2022/04/05 05:29:05;;;;;;;13.75;3.42;;;7.20;99.90;;;;;;5006245;28;20061;-68
2022/04/05 05:31:31;;;;;;;23.02;3.90;;;7.10;99.90;;;;;;5009088;28;20042;-68
2022/04/05 05:33:57;;;;;;;14.48;3.17;;;7.20;99.90;;;;;;5008717;28;20130;-68
2022/04/05 05:36:22;;;;;;;20.58;3.47;;;7.20;99.90;;;;;;5007263;28;20041;-68
2022/04/05 05:38:48;;;;;;;16.90;3.35;;;7.20;99.90;;;;;;5006909;28;20057;-68
2022/04/05 05:41:14;;;;;;;19.48;3.00;;;7.70;99.90;;;;;;5006317;28;20042;-67
2022/04/05 05:43:41;;;;;;;18.42;3.50;;;7.30;99.90;;;;;;5004576;28;20048;-67
2022/04/05 05:46:06;;;;;;;20.27;3.55;;;7.30;99.90;;;;;;5010772;28;20045;-68
2022/04/05 05:48:33;;;;;;;21.00;3.90;;;7.40;99.90;;;;;;5010116;28;20497;-68
2022/04/05 05:50:59;;;;;;;20.88;3.42;;;7.40;99.90;;;;;;5011108;28;20129;-69
2022/04/05 05:53:25;;;;;;;11.98;3.15;;;7.50;99.90;;;;;;5011496;28;20167;-69
2022/04/05 05:55:51;;;;;;;17.83;3.28;;;7.50;99.90;;;;;;5009524;28;20042;-68
2022/04/05 05:58:17;;;;;;;17.60;3.70;;;7.60;99.90;;;;;;5009189;28;20099;-67
2022/04/05 06:00:43;;;;;;;18.75;3.47;;;7.60;99.90;;;;;;5010580;28;20122;-67
2022/04/05 06:03:10;;;;;;;15.57;3.28;;;7.60;99.90;;;;;;4991472;28;20366;-67
2022/04/05 06:05:36;;;;;;;19.42;3.55;;;7.60;99.90;;;;;;5009919;28;20560;-68
2022/04/05 06:08:04;;;;;;;17.63;3.25;;;7.60;99.90;;;;;;5010850;28;20038;-68
2022/04/05 06:10:30;;;;;;;20.10;3.55;;;7.60;99.90;;;;;;5009204;28;20041;-69
2022/04/05 06:12:57;;;;;;;22.10;3.97;;;7.60;99.90;;;;;;4991474;28;20104;-67
2022/04/05 06:15:25;;;;;;;17.85;3.35;;;8.30;99.90;;;;;;5009910;28;20451;-67
2022/04/05 06:17:51;;;;;;;15.85;3.22;;;8.60;99.90;;;;;;5011058;28;20065;-68
2022/04/05 06:20:19;;;;;;;16.90;3.67;;;7.70;99.90;;;;;;5010739;28;20151;-68
2022/04/05 06:22:56;;;;;;;18.45;3.00;;;7.70;99.90;;;;;;5009599;28;20062;-68
2022/04/05 06:25:28;;;;;;;16.23;3.33;;;7.70;99.90;;;;;;5011490;28;20042;-68
2022/04/05 06:27:55;;;;;;;20.00;3.72;;;7.80;99.90;;;;;;5011707;28;20069;-68
2022/04/05 06:30:20;;;;;;;12.85;2.88;;;7.80;99.90;;;;;;4992391;28;20042;-68
2022/04/05 06:32:50;;;;;;;18.50;2.85;;;7.80;99.90;;;;;;5008750;28;20048;-68
2022/04/05 06:35:17;;;;;;;18.65;3.47;;;7.90;99.90;;;;;;5010668;28;20096;-68
2022/04/05 06:37:45;;;;;;;14.40;3.45;;;7.90;99.90;;;;;;5007819;28;20053;-68
2022/04/05 06:40:14;;;;;;;20.25;3.90;;;7.90;99.90;;;;;;4992174;28;20081;-68
2022/04/05 06:42:43;;;;;;;14.70;3.42;;;8.00;99.90;;;;;;4992426;28;20129;-68
2022/04/05 06:45:14;;;;;;;16.02;3.40;;;8.00;99.90;;;;;;4984531;28;20077;-68
2022/04/05 06:47:40;;;;;;;17.52;3.22;;;8.10;99.90;;;;;;5009208;28;20041;-68
2022/04/05 06:50:08;;;;;;;14.20;2.72;;;8.10;99.90;;;;;;5009646;28;20064;-68
2022/04/05 06:52:38;;;;;;;14.95;2.95;;;8.20;99.90;;;;;;5008783;28;20394;-67
2022/04/05 06:55:05;;;;;;;16.05;3.53;;;8.30;99.90;;;;;;4991305;28;20053;-68
2022/04/05 06:57:31;;;;;;;17.50;3.40;;;8.30;99.90;;;;;;4990370;28;20042;-67
2022/04/05 06:59:57;;;;;;;15.95;3.00;;;8.50;99.90;;;;;;5008209;28;20386;-67
2022/04/05 07:02:23;;;;;;;17.55;3.22;;;8.60;99.90;;;;;;4992197;28;20096;-67
2022/04/05 07:04:48;;;;;;;14.20;3.60;;;10.00;99.90;;;;;;4990539;28;20133;-67
2022/04/05 07:07:14;;;;;;;16.83;3.20;;;8.80;99.90;;;;;;5010003;28;20049;-67
2022/04/05 07:09:40;;;;;;;15.05;3.13;;;8.90;99.90;;;;;;4980158;28;20057;-66
2022/04/05 07:12:09;;;;;;;12.65;3.50;;;9.00;99.90;;;;;;5010414;28;20049;-68
2022/04/05 07:14:34;;;;;;;16.52;3.05;;;9.10;99.90;;;;;;5008710;28;20051;-67
2022/04/05 07:17:00;;;;;;;12.35;3.08;;;9.10;99.90;;;;;;4999220;28;20057;-68
2022/04/05 07:19:25;;;;;;;16.00;3.33;;;9.10;99.90;;;;;;5009111;28;20120;-67
2022/04/05 07:21:51;;;;;;;13.73;2.78;;;9.10;99.90;;;;;;5007593;28;20481;-67
2022/04/05 07:24:18;;;;;;;12.50;3.35;;;9.10;99.90;;;;;;4998500;28;20149;-67
2022/04/05 07:26:44;;;;;;;13.10;2.90;;;9.00;99.90;;;;;;5008361;28;20387;-68
2022/04/05 07:29:10;;;;;;;13.70;2.78;;;9.70;99.90;;;;;;5008539;28;20053;-67
2022/04/05 07:31:36;;;;;;;11.45;2.67;;;9.00;99.90;;;;;;5009593;28;20516;-68
2022/04/05 07:34:03;;;;;;;15.57;3.25;;;9.00;99.90;;;;;;4990603;28;20504;-68
2022/04/05 07:36:29;;;;;;;14.07;3.25;;;9.00;99.90;;;;;;5010957;28;20060;-68
2022/04/05 07:38:55;;;;;;;11.20;4.18;;;9.90;99.90;;;;;;5008993;28;20049;-67
2022/04/05 07:41:21;;;;;;;11.15;2.92;;;9.00;99.90;;;;;;4989785;28;20454;-69
2022/04/05 07:43:46;;;;;;;8.85;2.65;;;9.00;99.90;;;;;;5006600;28;20041;-68
2022/04/05 07:46:12;;;;;;;11.77;3.40;;;9.00;99.90;;;;;;5009037;28;20042;-68
2022/04/05 07:48:39;;;;;;;13.10;2.85;;;9.00;99.90;;;;;;5008208;28;20391;-68
2022/04/05 07:51:05;;;;;;;11.65;3.10;;;8.90;99.90;;;;;;4991207;28;20075;-68
2022/04/05 07:53:31;;;;;;;12.18;2.80;;;8.90;99.90;;;;;;5008592;28;20048;-67
2022/04/05 07:55:56;;;;;;;12.00;2.88;;;8.80;99.90;;;;;;4990244;28;20053;-69
2022/04/05 07:58:23;;;;;;;11.18;3.00;;;8.00;99.90;;;;;;5008026;28;20042;-67
2022/04/05 08:00:49;;;;;;;12.52;2.60;;;8.80;99.90;;;;;;4971288;28;20046;-67
2022/04/05 08:03:14;;;;;;;11.60;3.00;;;8.90;99.90;;;;;;4988282;28;20056;-67
2022/04/05 08:05:41;;;;;;;13.27;3.22;;;9.00;99.90;;;;;;4989157;28;20459;-67
2022/04/05 08:08:08;;;;;;;11.63;2.90;;;9.00;99.90;;;;;;4988639;28;20078;-67
2022/04/05 08:10:35;;;;;;;13.15;3.22;;;9.10;99.90;;;;;;4967314;28;20049;-68
2022/04/05 08:13:01;;;;;;;11.30;2.95;;;9.00;99.90;;;;;;5007153;28;20344;-68
2022/04/05 08:15:27;;;;;;;7.88;2.90;;;9.00;99.90;;;;;;5007411;28;20124;-67
2022/04/05 08:17:53;;;;;;;13.80;2.80;;;9.00;99.90;;;;;;4973293;28;20038;-67
2022/04/05 08:20:19;;;;;;;13.00;2.90;;;9.20;99.90;;;;;;5007264;28;20061;-67
2022/04/05 08:22:46;;;;;;;13.45;3.22;;;9.30;99.90;;;;;;5007644;28;20077;-67
2022/04/05 08:25:14;;;;;;;14.32;2.90;;;9.40;99.90;;;;;;5007596;28;20045;-67
2022/04/05 08:27:41;;;;;;;10.32;2.85;;;9.40;99.90;;;;;;5006037;28;20080;-76
2022/04/05 08:30:09;;;;;;;9.60;2.70;;;9.50;99.90;;;;;;4999793;28;20106;-76
2022/04/05 08:32:36;;;;;;;16.70;3.35;;;9.40;99.90;;;;;;4984908;28;20647;-76
2022/04/05 08:35:06;;;;;;;11.95;2.63;;;9.30;99.90;;;;;;4998929;28;20059;-75
2022/04/05 08:37:31;;;;;;;12.93;3.22;;;9.40;99.90;;;;;;4984862;28;20125;-75
2022/04/05 08:39:57;;;;;;;10.55;2.88;;;9.40;99.90;;;;;;4985424;28;20164;-76
2022/04/05 08:42:25;;;;;;;11.48;3.25;;;9.40;99.90;;;;;;4985540;28;20462;-76
2022/04/05 08:44:52;;;;;;;14.32;3.10;;;9.40;99.90;;;;;;5002841;28;20138;-77
2022/04/05 08:47:21;;;;;;;12.93;3.22;;;9.50;99.90;;;;;;5004611;28;20034;-76
2022/04/05 08:49:49;;;;;;;9.57;2.88;;;9.50;99.90;;;;;;5004338;28;20054;-76
2022/04/05 08:52:15;;;;;;;16.92;2.83;;;9.60;99.90;;;;;;4985629;28;20129;-76
2022/04/05 08:54:41;;;;;;;15.18;3.47;;;9.50;99.90;;;;;;5004517;28;20056;-75
2022/04/05 08:57:06;;;;;;;12.77;3.42;;;9.60;99.90;;;;;;5003987;28;20798;-77
2022/04/05 08:59:32;;;;;;;12.43;3.60;;;9.50;99.90;;;;;;5002396;28;20038;-76
2022/04/05 09:01:58;;;;;;;10.88;3.00;;;9.40;99.90;;;;;;5004704;28;20580;-75
2022/04/05 09:04:24;;;;;;;10.57;3.60;;;9.40;99.90;;;;;;5003854;28;20077;-75
2022/04/05 09:06:50;;;;;;;11.15;3.10;;;9.40;99.90;;;;;;5004309;28;20045;-77
2022/04/05 09:09:17;;;;;;;12.95;3.50;;;10.40;99.90;;;;;;5007388;28;20061;-75
2022/04/05 09:11:48;;;;;;;10.35;3.30;;;9.80;99.90;;;;;;5002600;28;20041;-76
2022/04/05 09:14:14;;;;;;;11.45;3.30;;;10.10;99.90;;;;;;5003932;28;20127;-75
2022/04/05 09:16:40;;;;;;;9.05;2.80;;;10.20;99.90;;;;;;5003307;28;20091;-76
2022/04/05 09:19:13;;;;;;;9.50;2.65;;;10.20;99.90;;;;;;5004167;28;20545;-76
2022/04/05 09:21:49;;;;;;;8.63;2.55;;;10.30;99.90;;;;;;5007694;28;20049;-76
2022/04/05 09:24:15;;;;;;;7.28;2.88;;;10.40;99.90;;;;;;4988539;28;20046;-76
2022/04/05 09:26:46;;;;;;;8.20;2.33;;;10.30;99.90;;;;;;4988078;28;20050;-75
2022/04/05 09:29:13;;;;;;;7.85;2.22;;;10.40;99.90;;;;;;4954334;28;20105;-75
2022/04/05 09:31:48;;;;;;;6.65;2.10;;;10.50;99.90;;;;;;4972401;28;20043;-75
2022/04/05 09:34:19;;;;;;;7.53;2.38;;;11.60;99.90;;;;;;5006736;28;20502;-75
2022/04/05 09:36:48;;;;;;;4.97;2.17;;;10.40;99.90;;;;;;5007576;28;20078;-76
2022/04/05 09:39:19;;;;;;;9.30;2.30;;;10.50;99.90;;;;;;5007797;28;20053;-76
2022/04/05 09:42:08;;;;;;;7.63;2.28;;;10.50;99.90;;;;;;4991253;28;20046;-68
2022/04/05 09:44:37;;;;;;;10.43;2.53;;;10.60;99.90;;;;;;5008762;28;20483;-68
2022/04/05 09:47:07;;;;;;;7.18;2.38;;;10.60;99.90;;;;;;5009977;28;20121;-68
2022/04/05 09:49:35;;;;;;;6.38;2.45;;;10.50;99.90;;;;;;5010297;28;20054;-68
2022/04/05 09:52:02;;;;;;;5.63;2.40;;;10.50;99.90;;;;;;5011862;28;20383;-68
2022/04/05 09:54:29;;;;;;;7.05;2.47;;;10.50;99.90;;;;;;5009863;28;20501;-68
2022/04/05 09:57:06;;;;;;;10.15;2.63;;;10.40;99.90;;;;;;5009890;28;20568;-69
2022/04/05 09:59:50;;;;;;;8.15;2.20;;;10.30;99.90;;;;;;5000691;28;20077;-68
2022/04/05 10:02:17;;;;;;;10.20;2.60;;;10.20;99.90;;;;;;4991075;28;20045;-68
2022/04/05 10:05:05;;;;;;;7.55;2.92;;;10.10;99.90;;;;;;4973573;28;20058;-69
2022/04/05 10:07:32;;;;;;;13.43;3.55;;;10.10;99.90;;;;;;4990903;28;20046;-69
2022/04/05 10:09:58;;;;;;;8.57;2.80;;;10.20;99.90;;;;;;4991300;28;20058;-69
2022/04/05 10:12:24;;;;;;;6.57;2.90;;;10.30;99.90;;;;;;4991581;28;20356;-69
2022/04/05 10:14:50;;;;;;;8.88;2.95;;;10.30;99.90;;;;;;4989315;28;20057;-69
2022/04/05 10:17:20;;;;;;;8.93;3.50;;;10.30;99.90;;;;;;5003486;28;20038;-69
2022/04/05 10:19:49;;;;;;;12.18;3.35;;;10.40;99.90;;;;;;5012343;28;20039;-69
2022/04/05 10:22:17;;;;;;;8.77;3.05;;;10.30;99.90;;;;;;5010030;28;20136;-69
2022/04/05 10:24:45;;;;;;;7.13;2.85;;;10.30;99.90;;;;;;5010152;28;20494;-69
2022/04/05 10:27:11;;;;;;;4.40;2.55;;;10.40;99.90;;;;;;4991968;28;20042;-68
2022/04/05 10:29:37;;;;;;;7.03;2.58;;;10.40;99.90;;;;;;5007993;28;20049;-69
2022/04/05 10:32:03;;;;;;;5.88;2.30;;;10.30;99.90;;;;;;5010569;28;20452;-68
2022/04/05 10:34:34;;;;;;;3.88;2.05;;;10.30;99.90;;;;;;5009809;28;20046;-69
2022/04/05 10:37:06;;;;;;;4.72;2.40;;;10.30;99.90;;;;;;5009610;28;20422;-68
2022/04/05 10:39:32;;;;;;;5.30;2.35;;;10.30;99.90;;;;;;5009674;28;20056;-70
2022/04/05 10:42:21;;;;;;;7.20;2.55;;;10.20;99.90;;;;;;5010815;28;20056;-69
2022/04/05 10:44:51;;;;;;;4.47;2.22;;;10.20;99.90;;;;;;5010478;28;20052;-70
2022/04/05 10:47:17;;;;;;;4.28;2.20;;;10.20;99.90;;;;;;5010531;28;20046;-69
2022/04/05 10:49:47;;;;;;;4.57;2.33;;;10.30;99.90;;;;;;5010078;28;20505;-69
2022/04/05 10:52:17;;;;;;;5.85;2.45;;;10.30;99.90;;;;;;5010073;28;20034;-70
2022/04/05 10:54:44;;;;;;;3.88;2.10;;;10.30;99.90;;;;;;4972139;28;20456;-69
2022/04/05 10:57:26;;;;;;;4.60;2.55;;;10.40;99.90;;;;;;4989067;28;20086;-69
2022/04/05 10:59:59;;;;;;;4.15;2.40;;;10.50;99.90;;;;;;4989296;28;20089;-69
2022/04/05 11:02:35;;;;;;;3.55;2.10;;;10.60;99.90;;;;;;4997673;28;20117;-69
2022/04/05 11:05:13;;;;;;;3.17;1.92;;;10.60;99.90;;;;;;5008697;28;20038;-69
2022/04/05 11:07:54;;;;;;;3.65;1.90;;;10.70;99.90;;;;;;5011185;28;20053;-69
2022/04/05 11:10:28;;;;;;;3.78;1.90;;;10.80;99.90;;;;;;4991629;28;20053;-69
2022/04/05 11:13:17;;;;;;;3.75;1.80;;;10.70;99.90;;;;;;4992218;28;20046;-69
2022/04/05 11:15:46;;;;;;;3.40;1.83;;;10.60;99.90;;;;;;5004720;28;20057;-72
2022/04/05 11:18:17;;;;;;;2.75;2.10;;;10.50;99.90;;;;;;4988620;28;20050;-72
2022/04/05 11:20:45;;;;;;;3.92;2.30;;;10.50;99.90;;;;;;5006385;28;20487;-71
2022/04/05 11:23:12;;;;;;;3.05;2.05;;;10.50;99.90;;;;;;5005415;28;20053;-71
2022/04/05 11:25:38;;;;;;;4.55;2.30;;;10.70;99.90;;;;;;4987018;28;20489;-71
2022/04/05 11:28:21;;;;;;;4.30;2.40;;;10.70;99.90;;;;;;4998555;28;20327;-70
2022/04/05 11:31:06;;;;;;;3.15;2.08;;;11.60;99.90;;;;;;4978974;28;20108;-70
2022/04/05 11:33:32;;;;;;;2.90;2.00;;;11.00;99.90;;;;;;4985268;28;20126;-71
2022/04/05 11:36:00;;;;;;;3.30;1.90;;;11.30;99.90;;;;;;4986013;28;20551;-71
2022/04/05 11:38:30;;;;;;;4.35;2.10;;;11.40;99.90;;;;;;4985813;28;20470;-71
2022/04/05 11:41:06;;;;;;;3.60;1.90;;;11.50;99.90;;;;;;4984585;28;20061;-71
2022/04/05 11:43:43;;;;;;;6.10;2.20;;;11.40;99.90;;;;;;4967246;28;20451;-71
2022/04/05 11:46:15;;;;;;;2.47;1.83;;;11.90;99.90;;;;;;4984960;28;20108;-69
2022/04/05 11:48:49;;;;;;;2.83;1.90;;;11.20;99.90;;;;;;4967941;28;20127;-70
2022/04/05 11:51:17;;;;;;;3.42;2.08;;;11.10;99.90;;;;;;4968681;28;20049;-72
2022/04/05 11:53:44;;;;;;;2.85;1.90;;;11.20;99.90;;;;;;5003897;28;20057;-73
2022/04/05 11:56:14;;;;;;;3.58;1.80;;;11.20;99.90;;;;;;4990209;28;20041;-72
2022/04/05 11:58:48;;;;;;;2.60;1.88;;;11.00;99.90;;;;;;5006136;28;20494;-72
2022/04/05 12:01:26;;;;;;;2.53;1.70;;;11.20;99.90;;;;;;5007685;28;20042;-70
2022/04/05 12:03:52;;;;;;;2.38;1.80;;;11.20;99.90;;;;;;5000049;28;20050;-70
2022/04/05 12:06:20;;;;;;;2.75;2.00;;;11.30;99.90;;;;;;5004224;28;20049;-71
2022/04/05 12:08:47;;;;;;;3.38;2.10;;;11.30;99.90;;;;;;4989600;28;20056;-70
2022/04/05 12:11:16;;;;;;;3.03;2.00;;;11.40;99.90;;;;;;5004992;28;20050;-70
2022/04/05 12:13:51;;;;;;;2.95;1.70;;;11.40;99.90;;;;;;4982932;28;20145;-71
2022/04/05 12:16:16;;;;;;;2.58;1.88;;;11.40;99.90;;;;;;5007859;28;20080;-71
2022/04/05 12:18:42;;;;;;;3.00;2.10;;;11.60;99.90;;;;;;5008241;28;20045;-72
2022/04/05 12:21:08;;;;;;;2.50;1.80;;;11.80;99.90;;;;;;5011401;28;20475;-71
2022/04/05 12:23:35;;;;;;;3.13;2.13;;;12.10;99.90;;;;;;4992667;28;20056;-72
2022/04/05 12:26:06;;;;;;;3.40;2.08;;;12.10;99.90;;;;;;4996983;28;20118;-71
2022/04/05 12:28:43;;;;;;;2.90;2.10;;;12.10;99.90;;;;;;4970185;28;20068;-71
2022/04/05 12:31:11;;;;;;;3.45;2.20;;;12.10;99.90;;;;;;5003196;28;20257;-71
2022/04/05 12:33:39;;;;;;;3.97;2.50;;;12.10;99.90;;;;;;5007938;28;20096;-71
2022/04/05 12:36:07;;;;;;;3.90;2.90;;;12.10;99.90;;;;;;5010425;28;20092;-71
2022/04/05 12:38:34;;;;;;;3.05;2.25;;;12.20;99.90;;;;;;4990139;28;20045;-71
2022/04/05 12:41:03;;;;;;;3.55;2.15;;;12.30;99.90;;;;;;5005473;28;20050;-72
2022/04/05 12:43:29;;;;;;;4.22;2.17;;;12.30;99.90;;;;;;5005162;28;20056;-71
2022/04/05 12:45:55;;;;;;;3.10;2.20;;;12.20;99.90;;;;;;5005591;28;20038;-72
2022/04/05 12:48:22;;;;;;;3.88;2.30;;;12.20;99.90;;;;;;5014272;28;20127;-72
2022/04/05 12:50:50;;;;;;;3.22;2.25;;;12.20;99.90;;;;;;5024912;28;20136;-71